Time,TemperatureF,DewpointF,PressureIn,WindDirection,WindDirectionDegrees,WindSpeedMPH,WindSpeedGustMPH,Humidity,HourlyPrecipIn,Conditions,Clouds,dailyrainin,SolarRadiationWatts/m^2,SoftwareType,DateUTC
2013-02-18 00:01:00,23.0,22.0,-100.00,ESE,110,1.0,4.0,94,0.00,,,0.10,0.000000,,2013-02-18 07:01:00,
2013-02-18 00:11:00,23.0,22.0,-100.00,ESE,110,1.0,4.0,94,0.00,,,0.10,0.000000,,2013-02-18 07:11:00,
2013-02-18 00:42:00,22.0,21.0,-100.00,NNW,344,3.0,5.0,95,0.00,,,0.10,0.000000,,2013-02-18 07:42:00,
2013-02-18 00:52:00,22.0,21.0,-100.00,NNW,344,3.0,5.0,95,0.00,,,0.10,0.000000,,2013-02-18 07:52:00,
2013-02-18 01:01:00,22.0,21.0,-100.00,NNW,344,3.0,5.0,95,0.00,,,0.10,0.000000,,2013-02-18 08:01:00,
2013-02-18 01:11:00,22.0,21.0,-100.00,NNW,344,3.0,5.0,95,0.00,,,0.10,0.000000,,2013-02-18 08:11:00,
2013-02-18 01:42:00,21.0,20.0,-100.00,NNW,332,2.0,4.0,94,0.00,,,0.10,0.000000,,2013-02-18 08:42:00,
2013-02-18 01:52:00,21.0,20.0,-100.00,NNW,332,2.0,4.0,94,0.00,,,0.10,0.000000,,2013-02-18 08:52:00,
2013-02-18 02:02:00,21.0,20.0,-100.00,NNW,332,2.0,4.0,94,0.00,,,0.10,0.000000,,2013-02-18 09:02:00,
2013-02-18 02:11:00,21.0,20.0,-100.00,NNW,332,2.0,4.0,94,0.00,,,0.10,0.000000,,2013-02-18 09:11:00,
2013-02-18 02:42:00,15.0,13.0,-100.00,NNW,336,2.0,3.0,92,0.00,,,0.10,0.000000,,2013-02-18 09:42:00,
2013-02-18 02:52:00,15.0,13.0,-100.00,NNW,336,2.0,3.0,92,0.00,,,0.10,0.000000,,2013-02-18 09:52:00,
2013-02-18 03:01:00,15.0,13.0,-100.00,NNW,336,2.0,3.0,92,0.00,,,0.10,0.000000,,2013-02-18 10:01:00,
2013-02-18 03:42:00,14.0,12.0,-100.00,NNW,348,2.0,5.0,92,-99.99,,,0.10,0.000000,,2013-02-18 10:42:00,
2013-02-18 03:52:00,14.0,12.0,-100.00,NNW,348,2.0,5.0,92,-99.99,,,0.10,0.000000,,2013-02-18 10:52:00,
2013-02-18 04:01:00,14.0,12.0,-100.00,NNW,348,2.0,5.0,92,-99.99,,,0.10,0.000000,,2013-02-18 11:01:00,
2013-02-18 04:43:00,9.0,6.0,-100.00,North,359,2.0,4.0,87,-99.99,,,0.10,0.000000,,2013-02-18 11:43:00,
2013-02-18 04:53:00,9.0,6.0,-100.00,North,359,2.0,4.0,87,-99.99,,,0.10,0.000000,,2013-02-18 11:53:00,
2013-02-18 05:02:00,9.0,6.0,-100.00,North,359,2.0,4.0,87,-99.99,,,0.10,0.000000,,2013-02-18 12:02:00,
2013-02-18 05:42:00,7.0,4.0,-100.00,NE,35,2.0,4.0,86,-99.99,,,0.10,0.000000,,2013-02-18 12:42:00,
2013-02-18 05:53:00,7.0,4.0,-100.00,NE,35,2.0,4.0,86,-99.99,,,0.10,0.000000,,2013-02-18 12:53:00,
2013-02-18 06:02:00,7.0,4.0,-100.00,NE,35,2.0,4.0,86,-99.99,,,0.10,0.000000,,2013-02-18 13:02:00,
2013-02-18 06:42:00,5.0,2.0,-100.00,NE,34,1.0,3.0,87,-99.99,,,0.10,0.000000,,2013-02-18 13:42:00,
2013-02-18 06:53:00,5.0,2.0,-100.00,NE,34,1.0,3.0,87,-99.99,,,0.10,0.000000,,2013-02-18 13:53:00,
2013-02-18 07:02:00,5.0,2.0,-100.00,NE,34,1.0,3.0,87,-99.99,,,0.10,0.000000,,2013-02-18 14:02:00,
2013-02-18 07:42:00,3.0,-1.0,-100.00,NNE,13,2.0,3.0,84,-99.99,,,0.10,0.000000,,2013-02-18 14:42:00,
2013-02-18 07:53:00,3.0,-1.0,-100.00,NNE,13,2.0,3.0,84,-99.99,,,0.10,0.000000,,2013-02-18 14:53:00,
2013-02-18 08:01:00,3.0,-1.0,-100.00,NNE,13,2.0,3.0,84,-99.99,,,0.10,0.000000,,2013-02-18 15:01:00,
2013-02-18 08:42:00,4.0,0.0,-100.00,NE,53,1.0,3.0,83,-99.99,,,0.10,7.000000,,2013-02-18 15:42:00,
2013-02-18 08:52:00,4.0,0.0,-100.00,NE,53,1.0,3.0,83,-99.99,,,0.10,7.000000,,2013-02-18 15:52:00,
2013-02-18 09:02:00,4.0,0.0,-100.00,NE,53,1.0,3.0,83,-99.99,,,0.10,7.000000,,2013-02-18 16:02:00,
2013-02-18 09:43:00,16.0,12.0,-100.00,East,100,1.0,2.0,84,-99.99,,,0.10,83.000000,,2013-02-18 16:43:00,
2013-02-18 09:53:00,16.0,12.0,-100.00,East,100,1.0,2.0,84,-99.99,,,0.10,83.000000,,2013-02-18 16:53:00,
2013-02-18 10:03:00,16.0,12.0,-100.00,East,100,1.0,2.0,84,-99.99,,,0.10,83.000000,,2013-02-18 17:03:00,
2013-02-18 10:11:00,16.0,12.0,-100.00,East,100,1.0,2.0,84,-99.99,,,0.10,83.000000,,2013-02-18 17:11:00,
2013-02-18 10:43:00,29.0,21.0,-100.00,SSE,166,2.0,3.0,71,0.00,,,0.10,358.000000,,2013-02-18 17:43:00,
2013-02-18 10:53:00,29.0,21.0,-100.00,SSE,166,2.0,3.0,71,0.00,,,0.10,358.000000,,2013-02-18 17:53:00,
2013-02-18 11:02:00,29.0,21.0,-100.00,SSE,166,2.0,3.0,71,0.00,,,0.10,358.000000,,2013-02-18 18:02:00,
2013-02-18 11:11:00,29.0,21.0,-100.00,SSE,166,2.0,3.0,71,0.00,,,0.10,358.000000,,2013-02-18 18:11:00,
2013-02-18 11:43:00,36.0,19.0,-100.00,South,180,3.0,4.0,49,0.00,,,0.07,510.000000,,2013-02-18 18:43:00,
2013-02-18 11:52:00,36.0,19.0,-100.00,South,180,3.0,4.0,49,0.00,,,0.07,510.000000,,2013-02-18 18:52:00,
2013-02-18 12:02:00,36.0,19.0,-100.00,South,180,3.0,4.0,49,0.00,,,0.07,510.000000,,2013-02-18 19:02:00,
2013-02-18 12:11:00,36.0,19.0,-100.00,South,180,3.0,4.0,49,0.00,,,0.07,510.000000,,2013-02-18 19:11:00,
2013-02-18 12:43:00,40.0,19.0,-100.00,SSE,162,3.0,5.0,43,0.00,,,0.07,598.000000,,2013-02-18 19:43:00,
2013-02-18 12:53:00,40.0,19.0,-100.00,SSE,162,3.0,5.0,43,0.00,,,0.07,598.000000,,2013-02-18 19:53:00,
2013-02-18 13:01:00,40.0,19.0,-100.00,SSE,162,3.0,5.0,43,0.00,,,0.07,598.000000,,2013-02-18 20:01:00,
2013-02-18 13:42:00,40.0,19.0,-100.00,SSE,153,4.0,8.0,43,0.00,,,0.07,438.000000,,2013-02-18 20:42:00,
2013-02-18 13:53:00,40.0,19.0,-100.00,SSE,153,4.0,8.0,43,0.00,,,0.07,438.000000,,2013-02-18 20:53:00,
2013-02-18 14:02:00,40.0,19.0,-100.00,SSE,153,4.0,8.0,43,0.00,,,0.07,438.000000,,2013-02-18 21:02:00,
2013-02-18 14:11:00,40.0,19.0,-100.00,SSE,153,4.0,8.0,43,0.00,,,0.07,438.000000,,2013-02-18 21:11:00,
2013-02-18 14:43:00,39.0,18.0,-100.00,South,173,5.0,10.0,42,0.00,,,0.07,519.000000,,2013-02-18 21:43:00,
2013-02-18 14:52:00,39.0,18.0,-100.00,South,173,5.0,10.0,42,0.00,,,0.07,519.000000,,2013-02-18 21:52:00,
2013-02-18 15:02:00,39.0,18.0,-100.00,South,173,5.0,10.0,42,0.00,,,0.07,519.000000,,2013-02-18 22:02:00,
2013-02-18 15:11:00,39.0,18.0,-100.00,South,173,5.0,10.0,42,0.00,,,0.07,519.000000,,2013-02-18 22:11:00,
2013-02-18 15:43:00,39.0,19.0,-100.00,South,171,5.0,11.0,44,0.00,,,0.05,421.000000,,2013-02-18 22:43:00,
2013-02-18 15:53:00,39.0,19.0,-100.00,South,171,5.0,11.0,44,0.00,,,0.05,421.000000,,2013-02-18 22:53:00,
2013-02-18 16:02:00,39.0,19.0,-100.00,South,171,5.0,11.0,44,0.00,,,0.05,421.000000,,2013-02-18 23:02:00,
2013-02-18 16:11:00,39.0,19.0,-100.00,South,171,5.0,11.0,44,0.00,,,0.05,421.000000,,2013-02-18 23:11:00,
2013-02-18 16:43:00,38.0,21.0,-100.00,SSE,155,4.0,9.0,49,0.00,,,0.03,246.000000,,2013-02-18 23:43:00,
2013-02-18 16:53:00,38.0,21.0,-100.00,SSE,155,4.0,9.0,49,0.00,,,0.03,246.000000,,2013-02-18 23:53:00,
2013-02-18 17:02:00,38.0,21.0,-100.00,SSE,155,4.0,9.0,49,0.00,,,0.03,246.000000,,2013-02-19 00:02:00,
2013-02-18 17:11:00,38.0,21.0,-100.00,SSE,155,4.0,9.0,49,0.00,,,0.03,246.000000,,2013-02-19 00:11:00,
2013-02-18 17:44:00,34.0,15.0,-100.00,SE,144,1.0,7.0,46,0.00,,,0.01,158.000000,,2013-02-19 00:44:00,
2013-02-18 17:54:00,34.0,15.0,-100.00,SE,144,1.0,7.0,46,0.00,,,0.01,158.000000,,2013-02-19 00:54:00,
2013-02-18 18:02:00,34.0,15.0,-100.00,SE,144,1.0,7.0,46,0.00,,,0.01,158.000000,,2013-02-19 01:02:00,
2013-02-18 18:12:00,34.0,15.0,-100.00,SE,144,1.0,7.0,46,0.00,,,0.01,158.000000,,2013-02-19 01:12:00,
2013-02-18 18:45:00,27.0,18.0,-100.00,NW,309,2.0,4.0,67,0.00,,,0.00,23.000000,,2013-02-19 01:45:00,
2013-02-18 18:55:00,27.0,18.0,-100.00,NW,309,2.0,4.0,67,0.00,,,0.00,23.000000,,2013-02-19 01:55:00,
2013-02-18 19:02:00,27.0,18.0,-100.00,NW,309,2.0,4.0,67,0.00,,,0.00,23.000000,,2013-02-19 02:02:00,
2013-02-18 19:12:00,27.0,18.0,-100.00,NW,309,2.0,4.0,67,0.00,,,0.00,23.000000,,2013-02-19 02:12:00,
2013-02-18 19:43:00,26.0,20.0,-100.00,East,100,1.0,4.0,77,0.00,,,0.00,0.000000,,2013-02-19 02:43:00,
2013-02-18 19:54:00,26.0,20.0,-100.00,East,100,1.0,4.0,77,0.00,,,0.00,0.000000,,2013-02-19 02:54:00,
2013-02-18 20:04:00,26.0,20.0,-100.00,East,100,1.0,4.0,77,0.00,,,0.00,0.000000,,2013-02-19 03:04:00,
2013-02-18 20:12:00,26.0,20.0,-100.00,East,100,1.0,4.0,77,0.00,,,0.00,0.000000,,2013-02-19 03:12:00,
2013-02-18 20:45:00,24.0,19.0,-100.00,North,8,2.0,4.0,82,0.00,,,0.00,0.000000,,2013-02-19 03:45:00,
2013-02-18 20:54:00,24.0,19.0,-100.00,North,8,2.0,4.0,82,0.00,,,0.00,0.000000,,2013-02-19 03:54:00,
2013-02-18 21:02:00,24.0,19.0,-100.00,North,8,2.0,4.0,82,0.00,,,0.00,0.000000,,2013-02-19 04:02:00,
2013-02-18 21:12:00,24.0,19.0,-100.00,North,8,2.0,4.0,82,0.00,,,0.00,0.000000,,2013-02-19 04:12:00,
2013-02-18 21:44:00,21.0,18.0,-100.00,North,6,1.0,3.0,88,0.00,,,0.00,0.000000,,2013-02-19 04:44:00,
2013-02-18 21:54:00,21.0,18.0,-100.00,North,6,1.0,3.0,88,0.00,,,0.00,0.000000,,2013-02-19 04:54:00,
2013-02-18 22:01:00,21.0,18.0,-100.00,North,6,1.0,3.0,88,0.00,,,0.00,0.000000,,2013-02-19 05:01:00,
2013-02-18 22:12:00,21.0,18.0,-100.00,North,6,1.0,3.0,88,0.00,,,0.00,0.000000,,2013-02-19 05:12:00,
2013-02-18 22:43:00,20.0,18.0,-100.00,NNW,344,2.0,3.0,91,0.00,,,0.00,0.000000,,2013-02-19 05:43:00,
2013-02-18 22:52:00,20.0,18.0,-100.00,NNW,344,2.0,3.0,91,0.00,,,0.00,0.000000,,2013-02-19 05:52:00,
2013-02-18 23:02:00,20.0,18.0,-100.00,NNW,344,2.0,3.0,91,0.00,,,0.00,0.000000,,2013-02-19 06:02:00,
2013-02-18 23:11:00,20.0,18.0,-100.00,NNW,344,2.0,3.0,91,0.00,,,0.00,0.000000,,2013-02-19 06:11:00,
2013-02-18 23:42:00,17.0,15.0,-100.00,North,350,2.0,3.0,92,0.00,,,-99.99,0.000000,,2013-02-19 06:42:00,
2013-02-18 23:52:00,17.0,15.0,-100.00,North,350,2.0,3.0,92,0.00,,,-99.99,0.000000,,2013-02-19 06:52:00,